sensor_id;sensor_type;location;lat;lon;timestamp;P1;durP1;ratioP1;P2;durP2;ratioP2
23658;SDS011;12006;42.666;23.326;2023-04-25T00:01:00;4.73;;;3.13;;
23658;SDS011;12006;42.666;23.326;2023-04-25T00:03:27;3.30;;;2.90;;
23658;SDS011;12006;42.666;23.326;2023-04-25T00:05:54;2.80;;;2.53;;
23658;SDS011;12006;42.666;23.326;2023-04-25T00:08:21;4.30;;;2.90;;
23658;SDS011;12006;42.666;23.326;2023-04-25T00:10:47;3.07;;;2.60;;
23658;SDS011;12006;42.666;23.326;2023-04-25T00:13:13;4.03;;;3.03;;
23658;SDS011;12006;42.666;23.326;2023-04-25T00:15:39;3.73;;;3.17;;
23658;SDS011;12006;42.666;23.326;2023-04-25T00:18:06;5.50;;;3.57;;
23658;SDS011;12006;42.666;23.326;2023-04-25T00:20:32;6.40;;;2.47;;
23658;SDS011;12006;42.666;23.326;2023-04-25T00:22:58;4.07;;;2.87;;
23658;SDS011;12006;42.666;23.326;2023-04-25T00:25:23;3.73;;;3.40;;
23658;SDS011;12006;42.666;23.326;2023-04-25T00:27:48;3.63;;;3.33;;
23658;SDS011;12006;42.666;23.326;2023-04-25T00:30:14;4.00;;;3.07;;
23658;SDS011;12006;42.666;23.326;2023-04-25T00:32:39;3.43;;;3.13;;
23658;SDS011;12006;42.666;23.326;2023-04-25T00:35:05;3.13;;;2.83;;
23658;SDS011;12006;42.666;23.326;2023-04-25T00:37:31;4.07;;;3.30;;
23658;SDS011;12006;42.666;23.326;2023-04-25T00:39:57;4.37;;;3.53;;
23658;SDS011;12006;42.666;23.326;2023-04-25T00:42:23;4.80;;;3.17;;
23658;SDS011;12006;42.666;23.326;2023-04-25T00:44:49;4.27;;;3.83;;
23658;SDS011;12006;42.666;23.326;2023-04-25T00:47:15;3.87;;;3.10;;
23658;SDS011;12006;42.666;23.326;2023-04-25T00:49:41;3.80;;;3.40;;
23658;SDS011;12006;42.666;23.326;2023-04-25T00:52:06;4.40;;;3.40;;
23658;SDS011;12006;42.666;23.326;2023-04-25T00:54:32;4.17;;;3.67;;
23658;SDS011;12006;42.666;23.326;2023-04-25T00:56:57;5.93;;;3.83;;
23658;SDS011;12006;42.666;23.326;2023-04-25T00:59:23;4.90;;;4.00;;
23658;SDS011;12006;42.666;23.326;2023-04-25T01:01:50;4.97;;;3.90;;
23658;SDS011;12006;42.666;23.326;2023-04-25T01:04:15;4.47;;;3.13;;
23658;SDS011;12006;42.666;23.326;2023-04-25T01:06:41;7.67;;;4.27;;
23658;SDS011;12006;42.666;23.326;2023-04-25T01:09:06;5.00;;;3.23;;
23658;SDS011;12006;42.666;23.326;2023-04-25T01:11:32;5.43;;;4.20;;
23658;SDS011;12006;42.666;23.326;2023-04-25T01:13:58;4.10;;;3.43;;
23658;SDS011;12006;42.666;23.326;2023-04-25T01:16:23;5.80;;;4.00;;
23658;SDS011;12006;42.666;23.326;2023-04-25T01:18:49;5.17;;;3.60;;
23658;SDS011;12006;42.666;23.326;2023-04-25T01:21:16;6.30;;;4.13;;
23658;SDS011;12006;42.666;23.326;2023-04-25T01:23:42;5.13;;;3.97;;
23658;SDS011;12006;42.666;23.326;2023-04-25T01:26:11;4.80;;;3.77;;
23658;SDS011;12006;42.666;23.326;2023-04-25T01:28:37;4.53;;;3.67;;
23658;SDS011;12006;42.666;23.326;2023-04-25T01:31:06;5.73;;;3.60;;
23658;SDS011;12006;42.666;23.326;2023-04-25T01:33:31;4.77;;;3.57;;
23658;SDS011;12006;42.666;23.326;2023-04-25T01:35:57;5.33;;;4.00;;
23658;SDS011;12006;42.666;23.326;2023-04-25T01:38:22;3.50;;;3.07;;
23658;SDS011;12006;42.666;23.326;2023-04-25T01:40:48;4.27;;;3.67;;
23658;SDS011;12006;42.666;23.326;2023-04-25T01:43:15;3.53;;;2.87;;
23658;SDS011;12006;42.666;23.326;2023-04-25T01:45:42;4.73;;;3.40;;
23658;SDS011;12006;42.666;23.326;2023-04-25T01:48:11;3.13;;;2.73;;
23658;SDS011;12006;42.666;23.326;2023-04-25T01:50:38;4.43;;;3.63;;
23658;SDS011;12006;42.666;23.326;2023-04-25T01:53:05;3.63;;;3.03;;
23658;SDS011;12006;42.666;23.326;2023-04-25T01:55:30;4.03;;;3.13;;
23658;SDS011;12006;42.666;23.326;2023-04-25T01:57:56;4.03;;;3.27;;
23658;SDS011;12006;42.666;23.326;2023-04-25T02:00:21;3.60;;;2.87;;
23658;SDS011;12006;42.666;23.326;2023-04-25T02:02:47;4.07;;;3.13;;
23658;SDS011;12006;42.666;23.326;2023-04-25T02:05:13;4.03;;;3.00;;
23658;SDS011;12006;42.666;23.326;2023-04-25T02:07:38;4.20;;;2.97;;
23658;SDS011;12006;42.666;23.326;2023-04-25T02:10:04;3.83;;;3.20;;
23658;SDS011;12006;42.666;23.326;2023-04-25T02:12:30;5.30;;;4.13;;
23658;SDS011;12006;42.666;23.326;2023-04-25T02:14:56;4.13;;;3.13;;
23658;SDS011;12006;42.666;23.326;2023-04-25T02:17:22;4.73;;;3.73;;
23658;SDS011;12006;42.666;23.326;2023-04-25T02:19:47;5.30;;;3.30;;
23658;SDS011;12006;42.666;23.326;2023-04-25T02:22:13;5.20;;;3.83;;
23658;SDS011;12006;42.666;23.326;2023-04-25T02:24:38;5.10;;;3.50;;
23658;SDS011;12006;42.666;23.326;2023-04-25T02:27:04;6.37;;;3.80;;
23658;SDS011;12006;42.666;23.326;2023-04-25T02:29:30;3.47;;;2.67;;
23658;SDS011;12006;42.666;23.326;2023-04-25T02:31:55;4.80;;;3.70;;
23658;SDS011;12006;42.666;23.326;2023-04-25T02:34:21;4.07;;;3.47;;
23658;SDS011;12006;42.666;23.326;2023-04-25T02:36:47;3.50;;;3.07;;
23658;SDS011;12006;42.666;23.326;2023-04-25T02:39:14;4.73;;;3.47;;
23658;SDS011;12006;42.666;23.326;2023-04-25T02:41:39;4.23;;;3.20;;
23658;SDS011;12006;42.666;23.326;2023-04-25T02:44:05;4.87;;;4.03;;
23658;SDS011;12006;42.666;23.326;2023-04-25T02:46:30;4.50;;;3.07;;
23658;SDS011;12006;42.666;23.326;2023-04-25T02:48:56;6.67;;;3.77;;
23658;SDS011;12006;42.666;23.326;2023-04-25T02:51:21;4.93;;;3.33;;
23658;SDS011;12006;42.666;23.326;2023-04-25T02:53:46;4.23;;;3.23;;
23658;SDS011;12006;42.666;23.326;2023-04-25T02:56:12;4.43;;;3.60;;
23658;SDS011;12006;42.666;23.326;2023-04-25T02:58:37;5.53;;;3.83;;
23658;SDS011;12006;42.666;23.326;2023-04-25T03:01:03;6.53;;;4.23;;
23658;SDS011;12006;42.666;23.326;2023-04-25T03:03:28;4.17;;;3.50;;
23658;SDS011;12006;42.666;23.326;2023-04-25T03:05:53;4.67;;;3.83;;
23658;SDS011;12006;42.666;23.326;2023-04-25T03:08:19;5.73;;;3.87;;
23658;SDS011;12006;42.666;23.326;2023-04-25T03:10:45;5.03;;;3.20;;
23658;SDS011;12006;42.666;23.326;2023-04-25T03:13:10;6.83;;;4.17;;
23658;SDS011;12006;42.666;23.326;2023-04-25T03:15:36;5.73;;;4.43;;
23658;SDS011;12006;42.666;23.326;2023-04-25T03:18:02;5.53;;;3.80;;
23658;SDS011;12006;42.666;23.326;2023-04-25T03:20:27;6.33;;;4.20;;
23658;SDS011;12006;42.666;23.326;2023-04-25T03:22:53;7.53;;;5.20;;
23658;SDS011;12006;42.666;23.326;2023-04-25T03:25:19;5.27;;;4.13;;
23658;SDS011;12006;42.666;23.326;2023-04-25T03:27:44;5.20;;;3.70;;
23658;SDS011;12006;42.666;23.326;2023-04-25T03:30:10;6.33;;;4.63;;
23658;SDS011;12006;42.666;23.326;2023-04-25T03:32:36;6.13;;;4.67;;
23658;SDS011;12006;42.666;23.326;2023-04-25T03:35:01;6.47;;;4.13;;
23658;SDS011;12006;42.666;23.326;2023-04-25T03:37:27;5.60;;;3.70;;
23658;SDS011;12006;42.666;23.326;2023-04-25T03:39:52;5.40;;;4.00;;
23658;SDS011;12006;42.666;23.326;2023-04-25T03:42:17;6.27;;;3.80;;
23658;SDS011;12006;42.666;23.326;2023-04-25T03:44:43;5.63;;;3.67;;
23658;SDS011;12006;42.666;23.326;2023-04-25T03:47:08;6.37;;;4.10;;
23658;SDS011;12006;42.666;23.326;2023-04-25T03:49:34;5.73;;;4.50;;
23658;SDS011;12006;42.666;23.326;2023-04-25T03:52:01;6.77;;;4.13;;
23658;SDS011;12006;42.666;23.326;2023-04-25T03:54:26;5.10;;;4.07;;
23658;SDS011;12006;42.666;23.326;2023-04-25T03:56:52;7.40;;;5.40;;
23658;SDS011;12006;42.666;23.326;2023-04-25T03:59:17;5.20;;;4.30;;
23658;SDS011;12006;42.666;23.326;2023-04-25T04:01:43;5.50;;;4.83;;
23658;SDS011;12006;42.666;23.326;2023-04-25T04:04:08;5.33;;;3.87;;
23658;SDS011;12006;42.666;23.326;2023-04-25T04:06:33;8.10;;;5.13;;
23658;SDS011;12006;42.666;23.326;2023-04-25T04:08:59;6.30;;;5.03;;
23658;SDS011;12006;42.666;23.326;2023-04-25T04:11:24;6.50;;;4.83;;
23658;SDS011;12006;42.666;23.326;2023-04-25T04:13:50;7.40;;;4.60;;
23658;SDS011;12006;42.666;23.326;2023-04-25T04:16:15;5.40;;;4.43;;
23658;SDS011;12006;42.666;23.326;2023-04-25T04:18:41;6.27;;;4.73;;
23658;SDS011;12006;42.666;23.326;2023-04-25T04:21:06;6.70;;;5.20;;
23658;SDS011;12006;42.666;23.326;2023-04-25T04:23:31;6.50;;;4.63;;
23658;SDS011;12006;42.666;23.326;2023-04-25T04:25:57;6.30;;;4.30;;
23658;SDS011;12006;42.666;23.326;2023-04-25T04:28:22;5.63;;;4.17;;
23658;SDS011;12006;42.666;23.326;2023-04-25T04:30:48;6.50;;;4.90;;
23658;SDS011;12006;42.666;23.326;2023-04-25T04:33:16;5.60;;;4.43;;
23658;SDS011;12006;42.666;23.326;2023-04-25T04:35:43;5.60;;;4.50;;
23658;SDS011;12006;42.666;23.326;2023-04-25T04:38:09;7.37;;;4.70;;
23658;SDS011;12006;42.666;23.326;2023-04-25T04:40:36;4.80;;;3.67;;
23658;SDS011;12006;42.666;23.326;2023-04-25T04:43:02;4.73;;;4.27;;
23658;SDS011;12006;42.666;23.326;2023-04-25T04:45:28;6.20;;;4.70;;
23658;SDS011;12006;42.666;23.326;2023-04-25T04:47:53;4.93;;;4.27;;
23658;SDS011;12006;42.666;23.326;2023-04-25T04:50:20;5.83;;;3.60;;
23658;SDS011;12006;42.666;23.326;2023-04-25T04:52:45;6.10;;;4.47;;
23658;SDS011;12006;42.666;23.326;2023-04-25T04:55:11;5.87;;;4.03;;
23658;SDS011;12006;42.666;23.326;2023-04-25T04:57:36;5.50;;;4.37;;
23658;SDS011;12006;42.666;23.326;2023-04-25T05:00:01;5.63;;;4.00;;
23658;SDS011;12006;42.666;23.326;2023-04-25T05:02:30;7.33;;;6.00;;
23658;SDS011;12006;42.666;23.326;2023-04-25T05:04:55;5.53;;;4.93;;
23658;SDS011;12006;42.666;23.326;2023-04-25T05:07:21;8.17;;;6.83;;
23658;SDS011;12006;42.666;23.326;2023-04-25T05:09:46;6.57;;;5.63;;
23658;SDS011;12006;42.666;23.326;2023-04-25T05:12:12;8.00;;;6.27;;
23658;SDS011;12006;42.666;23.326;2023-04-25T05:14:37;10.80;;;7.83;;
23658;SDS011;12006;42.666;23.326;2023-04-25T05:17:03;12.43;;;8.03;;
23658;SDS011;12006;42.666;23.326;2023-04-25T05:19:32;19.63;;;13.83;;
23658;SDS011;12006;42.666;23.326;2023-04-25T05:21:57;11.10;;;8.57;;
23658;SDS011;12006;42.666;23.326;2023-04-25T05:24:23;7.60;;;6.70;;
23658;SDS011;12006;42.666;23.326;2023-04-25T05:26:48;9.27;;;7.20;;
23658;SDS011;12006;42.666;23.326;2023-04-25T05:29:13;9.63;;;7.83;;
23658;SDS011;12006;42.666;23.326;2023-04-25T05:31:39;11.87;;;9.63;;
23658;SDS011;12006;42.666;23.326;2023-04-25T05:34:04;10.50;;;7.17;;
23658;SDS011;12006;42.666;23.326;2023-04-25T05:36:30;11.23;;;8.47;;
23658;SDS011;12006;42.666;23.326;2023-04-25T05:38:57;11.77;;;8.77;;
23658;SDS011;12006;42.666;23.326;2023-04-25T05:41:22;9.03;;;6.70;;
23658;SDS011;12006;42.666;23.326;2023-04-25T05:43:48;7.87;;;6.73;;
23658;SDS011;12006;42.666;23.326;2023-04-25T05:46:14;8.17;;;7.20;;
23658;SDS011;12006;42.666;23.326;2023-04-25T05:48:42;8.60;;;6.73;;
23658;SDS011;12006;42.666;23.326;2023-04-25T05:51:08;8.23;;;6.67;;
23658;SDS011;12006;42.666;23.326;2023-04-25T05:53:34;6.93;;;5.67;;
23658;SDS011;12006;42.666;23.326;2023-04-25T05:55:59;6.57;;;5.13;;
23658;SDS011;12006;42.666;23.326;2023-04-25T05:58:25;6.83;;;5.07;;
23658;SDS011;12006;42.666;23.326;2023-04-25T06:00:50;6.47;;;5.10;;
23658;SDS011;12006;42.666;23.326;2023-04-25T06:03:15;6.50;;;5.13;;
23658;SDS011;12006;42.666;23.326;2023-04-25T06:05:41;7.07;;;5.70;;
23658;SDS011;12006;42.666;23.326;2023-04-25T06:08:07;9.90;;;7.23;;
23658;SDS011;12006;42.666;23.326;2023-04-25T06:10:33;8.93;;;7.10;;
23658;SDS011;12006;42.666;23.326;2023-04-25T06:12:58;6.93;;;5.73;;
23658;SDS011;12006;42.666;23.326;2023-04-25T06:15:24;6.73;;;5.80;;
23658;SDS011;12006;42.666;23.326;2023-04-25T06:17:49;7.40;;;6.13;;
23658;SDS011;12006;42.666;23.326;2023-04-25T06:20:15;6.53;;;5.50;;
23658;SDS011;12006;42.666;23.326;2023-04-25T06:22:40;6.43;;;5.40;;
23658;SDS011;12006;42.666;23.326;2023-04-25T06:25:06;10.27;;;7.23;;
23658;SDS011;12006;42.666;23.326;2023-04-25T06:27:32;10.40;;;7.53;;
23658;SDS011;12006;42.666;23.326;2023-04-25T06:29:58;7.77;;;5.60;;
23658;SDS011;12006;42.666;23.326;2023-04-25T06:32:23;5.00;;;4.50;;
23658;SDS011;12006;42.666;23.326;2023-04-25T06:34:49;6.07;;;4.27;;
23658;SDS011;12006;42.666;23.326;2023-04-25T06:37:15;5.30;;;4.20;;
23658;SDS011;12006;42.666;23.326;2023-04-25T06:39:41;4.80;;;4.10;;
23658;SDS011;12006;42.666;23.326;2023-04-25T06:42:06;5.60;;;4.53;;
23658;SDS011;12006;42.666;23.326;2023-04-25T06:44:31;5.30;;;4.20;;
23658;SDS011;12006;42.666;23.326;2023-04-25T06:46:57;4.43;;;3.57;;
23658;SDS011;12006;42.666;23.326;2023-04-25T06:49:22;4.17;;;3.77;;
23658;SDS011;12006;42.666;23.326;2023-04-25T06:51:47;6.93;;;3.73;;
23658;SDS011;12006;42.666;23.326;2023-04-25T06:54:13;4.63;;;4.10;;
23658;SDS011;12006;42.666;23.326;2023-04-25T06:56:38;7.63;;;5.67;;
23658;SDS011;12006;42.666;23.326;2023-04-25T06:59:03;5.87;;;5.07;;
23658;SDS011;12006;42.666;23.326;2023-04-25T07:01:29;3.97;;;3.50;;
23658;SDS011;12006;42.666;23.326;2023-04-25T07:03:55;4.00;;;3.47;;
23658;SDS011;12006;42.666;23.326;2023-04-25T07:06:20;4.43;;;3.77;;
23658;SDS011;12006;42.666;23.326;2023-04-25T07:08:45;4.82;;;3.03;;
23658;SDS011;12006;42.666;23.326;2023-04-25T07:11:11;3.72;;;3.40;;
23658;SDS011;12006;42.666;23.326;2023-04-25T07:13:36;4.30;;;3.57;;
23658;SDS011;12006;42.666;23.326;2023-04-25T07:16:02;5.35;;;4.15;;
23658;SDS011;12006;42.666;23.326;2023-04-25T07:18:28;7.63;;;5.00;;
23658;SDS011;12006;42.666;23.326;2023-04-25T07:20:53;4.87;;;3.63;;
23658;SDS011;12006;42.666;23.326;2023-04-25T07:23:19;5.38;;;4.00;;
23658;SDS011;12006;42.666;23.326;2023-04-25T07:25:44;6.10;;;4.50;;
23658;SDS011;12006;42.666;23.326;2023-04-25T07:28:09;5.00;;;4.10;;
23658;SDS011;12006;42.666;23.326;2023-04-25T07:30:35;3.90;;;3.47;;
23658;SDS011;12006;42.666;23.326;2023-04-25T07:33:01;4.40;;;3.67;;
23658;SDS011;12006;42.666;23.326;2023-04-25T07:35:27;3.92;;;3.63;;
23658;SDS011;12006;42.666;23.326;2023-04-25T07:37:52;4.18;;;3.67;;
23658;SDS011;12006;42.666;23.326;2023-04-25T07:40:17;4.57;;;3.15;;
23658;SDS011;12006;42.666;23.326;2023-04-25T07:42:43;4.35;;;3.42;;
23658;SDS011;12006;42.666;23.326;2023-04-25T07:45:08;5.57;;;3.70;;
23658;SDS011;12006;42.666;23.326;2023-04-25T07:47:34;3.83;;;3.42;;
23658;SDS011;12006;42.666;23.326;2023-04-25T07:50:00;4.17;;;3.70;;
23658;SDS011;12006;42.666;23.326;2023-04-25T07:52:26;7.93;;;4.80;;
23658;SDS011;12006;42.666;23.326;2023-04-25T07:54:51;4.75;;;4.18;;
23658;SDS011;12006;42.666;23.326;2023-04-25T07:57:17;4.55;;;3.92;;
23658;SDS011;12006;42.666;23.326;2023-04-25T07:59:43;3.55;;;3.10;;
23658;SDS011;12006;42.666;23.326;2023-04-25T08:02:08;3.45;;;3.15;;
23658;SDS011;12006;42.666;23.326;2023-04-25T08:04:34;4.10;;;3.28;;
23658;SDS011;12006;42.666;23.326;2023-04-25T08:06:59;4.30;;;3.50;;
23658;SDS011;12006;42.666;23.326;2023-04-25T08:09:25;4.85;;;3.70;;
23658;SDS011;12006;42.666;23.326;2023-04-25T08:11:50;5.30;;;3.63;;
23658;SDS011;12006;42.666;23.326;2023-04-25T08:14:16;4.15;;;3.72;;
23658;SDS011;12006;42.666;23.326;2023-04-25T08:16:41;5.93;;;4.05;;
23658;SDS011;12006;42.666;23.326;2023-04-25T08:19:07;5.97;;;3.55;;
23658;SDS011;12006;42.666;23.326;2023-04-25T08:21:32;4.35;;;2.95;;
23658;SDS011;12006;42.666;23.326;2023-04-25T08:23:58;4.55;;;3.05;;
23658;SDS011;12006;42.666;23.326;2023-04-25T08:26:24;4.00;;;3.25;;
23658;SDS011;12006;42.666;23.326;2023-04-25T08:28:50;3.88;;;3.15;;
23658;SDS011;12006;42.666;23.326;2023-04-25T08:31:16;4.10;;;2.72;;
23658;SDS011;12006;42.666;23.326;2023-04-25T08:33:42;2.67;;;2.45;;
23658;SDS011;12006;42.666;23.326;2023-04-25T08:36:07;3.72;;;2.90;;
23658;SDS011;12006;42.666;23.326;2023-04-25T08:38:33;3.05;;;2.72;;
23658;SDS011;12006;42.666;23.326;2023-04-25T08:40:58;3.03;;;2.83;;
23658;SDS011;12006;42.666;23.326;2023-04-25T08:43:25;2.75;;;2.55;;
23658;SDS011;12006;42.666;23.326;2023-04-25T08:45:53;2.90;;;2.55;;
23658;SDS011;12006;42.666;23.326;2023-04-25T08:48:23;2.88;;;2.63;;
23658;SDS011;12006;42.666;23.326;2023-04-25T08:50:50;4.28;;;2.63;;
23658;SDS011;12006;42.666;23.326;2023-04-25T08:53:17;3.05;;;2.75;;
23658;SDS011;12006;42.666;23.326;2023-04-25T08:55:53;3.13;;;2.88;;
23658;SDS011;12006;42.666;23.326;2023-04-25T08:58:20;5.43;;;3.40;;
23658;SDS011;12006;42.666;23.326;2023-04-25T09:00:46;5.10;;;3.78;;
23658;SDS011;12006;42.666;23.326;2023-04-25T09:03:13;3.40;;;3.03;;
23658;SDS011;12006;42.666;23.326;2023-04-25T09:05:39;2.83;;;2.55;;
23658;SDS011;12006;42.666;23.326;2023-04-25T09:08:05;3.42;;;3.13;;
23658;SDS011;12006;42.666;23.326;2023-04-25T09:10:31;3.80;;;3.50;;
23658;SDS011;12006;42.666;23.326;2023-04-25T09:13:04;3.83;;;3.10;;
23658;SDS011;12006;42.666;23.326;2023-04-25T09:15:31;3.75;;;3.28;;
23658;SDS011;12006;42.666;23.326;2023-04-25T09:17:58;3.53;;;2.50;;
23658;SDS011;12006;42.666;23.326;2023-04-25T09:20:24;3.58;;;2.13;;
23658;SDS011;12006;42.666;23.326;2023-04-25T09:23:00;3.53;;;2.15;;
23658;SDS011;12006;42.666;23.326;2023-04-25T09:25:33;2.40;;;2.20;;
23658;SDS011;12006;42.666;23.326;2023-04-25T09:28:05;5.35;;;4.32;;
23658;SDS011;12006;42.666;23.326;2023-04-25T09:30:32;2.20;;;2.00;;
23658;SDS011;12006;42.666;23.326;2023-04-25T09:35:38;2.25;;;2.05;;
23658;SDS011;12006;42.666;23.326;2023-04-25T09:38:08;2.97;;;2.20;;
23658;SDS011;12006;42.666;23.326;2023-04-25T09:40:41;1.88;;;1.77;;
23658;SDS011;12006;42.666;23.326;2023-04-25T09:43:09;3.47;;;2.50;;
23658;SDS011;12006;42.666;23.326;2023-04-25T09:45:42;2.88;;;2.67;;
23658;SDS011;12006;42.666;23.326;2023-04-25T09:48:10;2.65;;;2.45;;
23658;SDS011;12006;42.666;23.326;2023-04-25T09:50:37;3.33;;;3.03;;
23658;SDS011;12006;42.666;23.326;2023-04-25T09:53:03;3.75;;;2.58;;
23658;SDS011;12006;42.666;23.326;2023-04-25T09:55:31;2.63;;;2.35;;
23658;SDS011;12006;42.666;23.326;2023-04-25T09:57:57;3.15;;;2.80;;
23658;SDS011;12006;42.666;23.326;2023-04-25T10:00:29;4.80;;;3.88;;
23658;SDS011;12006;42.666;23.326;2023-04-25T10:02:56;5.13;;;3.85;;
23658;SDS011;12006;42.666;23.326;2023-04-25T10:05:25;5.25;;;3.70;;
23658;SDS011;12006;42.666;23.326;2023-04-25T10:07:51;4.65;;;4.13;;
23658;SDS011;12006;42.666;23.326;2023-04-25T10:10:18;3.53;;;3.22;;
23658;SDS011;12006;42.666;23.326;2023-04-25T10:12:44;5.97;;;4.15;;
23658;SDS011;12006;42.666;23.326;2023-04-25T10:15:10;6.22;;;4.43;;
23658;SDS011;12006;42.666;23.326;2023-04-25T10:17:37;4.45;;;3.85;;
23658;SDS011;12006;42.666;23.326;2023-04-25T10:20:03;2.40;;;2.20;;
23658;SDS011;12006;42.666;23.326;2023-04-25T10:22:34;1.33;;;1.13;;
23658;SDS011;12006;42.666;23.326;2023-04-25T10:25:02;1.20;;;0.80;;
23658;SDS011;12006;42.666;23.326;2023-04-25T10:27:29;1.55;;;1.17;;
23658;SDS011;12006;42.666;23.326;2023-04-25T10:32:30;0.77;;;0.70;;
23658;SDS011;12006;42.666;23.326;2023-04-25T10:34:56;1.48;;;0.73;;
23658;SDS011;12006;42.666;23.326;2023-04-25T10:37:21;1.33;;;1.23;;
23658;SDS011;12006;42.666;23.326;2023-04-25T10:39:47;0.73;;;0.73;;
23658;SDS011;12006;42.666;23.326;2023-04-25T10:42:12;0.70;;;0.70;;
23658;SDS011;12006;42.666;23.326;2023-04-25T10:44:38;0.50;;;0.50;;
23658;SDS011;12006;42.666;23.326;2023-04-25T10:47:06;1.05;;;0.70;;
23658;SDS011;12006;42.666;23.326;2023-04-25T10:49:36;0.90;;;0.63;;
23658;SDS011;12006;42.666;23.326;2023-04-25T10:54:42;1.77;;;1.17;;
23658;SDS011;12006;42.666;23.326;2023-04-25T10:57:25;1.00;;;0.80;;
23658;SDS011;12006;42.666;23.326;2023-04-25T11:02:30;2.55;;;0.50;;
23658;SDS011;12006;42.666;23.326;2023-04-25T11:04:56;0.95;;;0.70;;
23658;SDS011;12006;42.666;23.326;2023-04-25T11:10:16;1.13;;;0.70;;
23658;SDS011;12006;42.666;23.326;2023-04-25T11:12:42;0.50;;;0.50;;
23658;SDS011;12006;42.666;23.326;2023-04-25T11:15:07;0.50;;;0.45;;
23658;SDS011;12006;42.666;23.326;2023-04-25T11:17:33;0.43;;;0.43;;
23658;SDS011;12006;42.666;23.326;2023-04-25T11:19:59;0.55;;;0.55;;
23658;SDS011;12006;42.666;23.326;2023-04-25T11:22:26;0.90;;;0.80;;
23658;SDS011;12006;42.666;23.326;2023-04-25T11:24:52;1.25;;;0.80;;
23658;SDS011;12006;42.666;23.326;2023-04-25T11:27:19;0.80;;;0.80;;
23658;SDS011;12006;42.666;23.326;2023-04-25T11:29:46;0.68;;;0.68;;
23658;SDS011;12006;42.666;23.326;2023-04-25T11:32:14;0.60;;;0.60;;
23658;SDS011;12006;42.666;23.326;2023-04-25T11:34:42;0.75;;;0.75;;
23658;SDS011;12006;42.666;23.326;2023-04-25T11:37:08;1.38;;;0.65;;
23658;SDS011;12006;42.666;23.326;2023-04-25T11:39:36;0.35;;;0.35;;
23658;SDS011;12006;42.666;23.326;2023-04-25T11:42:01;0.88;;;0.70;;
23658;SDS011;12006;42.666;23.326;2023-04-25T11:44:29;0.80;;;0.80;;
23658;SDS011;12006;42.666;23.326;2023-04-25T11:46:54;1.05;;;0.65;;
23658;SDS011;12006;42.666;23.326;2023-04-25T11:49:20;0.40;;;0.40;;
23658;SDS011;12006;42.666;23.326;2023-04-25T11:51:47;0.50;;;0.50;;
23658;SDS011;12006;42.666;23.326;2023-04-25T11:54:13;0.60;;;0.50;;
23658;SDS011;12006;42.666;23.326;2023-04-25T11:56:43;2.17;;;0.97;;
23658;SDS011;12006;42.666;23.326;2023-04-25T11:59:10;0.70;;;0.60;;
23658;SDS011;12006;42.666;23.326;2023-04-25T12:01:40;1.40;;;0.93;;
23658;SDS011;12006;42.666;23.326;2023-04-25T12:04:13;1.67;;;0.90;;
23658;SDS011;12006;42.666;23.326;2023-04-25T12:06:43;1.33;;;0.77;;
23658;SDS011;12006;42.666;23.326;2023-04-25T12:09:13;0.80;;;0.50;;
23658;SDS011;12006;42.666;23.326;2023-04-25T12:11:44;1.10;;;0.60;;
23658;SDS011;12006;42.666;23.326;2023-04-25T12:14:11;2.03;;;0.83;;
23658;SDS011;12006;42.666;23.326;2023-04-25T12:16:44;1.10;;;0.93;;
23658;SDS011;12006;42.666;23.326;2023-04-25T12:19:13;1.52;;;1.27;;
23658;SDS011;12006;42.666;23.326;2023-04-25T12:21:39;1.80;;;0.73;;
23658;SDS011;12006;42.666;23.326;2023-04-25T12:24:18;1.05;;;0.95;;
23658;SDS011;12006;42.666;23.326;2023-04-25T12:26:49;1.15;;;1.02;;
23658;SDS011;12006;42.666;23.326;2023-04-25T12:29:24;1.85;;;1.40;;
23658;SDS011;12006;42.666;23.326;2023-04-25T12:31:51;0.90;;;0.80;;
23658;SDS011;12006;42.666;23.326;2023-04-25T12:34:18;0.98;;;0.98;;
23658;SDS011;12006;42.666;23.326;2023-04-25T12:36:44;0.85;;;0.82;;
23658;SDS011;12006;42.666;23.326;2023-04-25T12:39:27;0.60;;;0.50;;
23658;SDS011;12006;42.666;23.326;2023-04-25T12:41:53;0.40;;;0.40;;
23658;SDS011;12006;42.666;23.326;2023-04-25T12:44:19;5.73;;;3.33;;
23658;SDS011;12006;42.666;23.326;2023-04-25T12:46:46;2.30;;;0.93;;
23658;SDS011;12006;42.666;23.326;2023-04-25T12:49:11;1.03;;;0.60;;
23658;SDS011;12006;42.666;23.326;2023-04-25T12:51:37;0.70;;;0.70;;
23658;SDS011;12006;42.666;23.326;2023-04-25T12:54:03;2.20;;;1.20;;
23658;SDS011;12006;42.666;23.326;2023-04-25T12:56:31;0.87;;;0.70;;
23658;SDS011;12006;42.666;23.326;2023-04-25T12:58:56;0.97;;;0.80;;
23658;SDS011;12006;42.666;23.326;2023-04-25T13:01:22;0.93;;;0.87;;
23658;SDS011;12006;42.666;23.326;2023-04-25T13:03:48;1.97;;;0.93;;
23658;SDS011;12006;42.666;23.326;2023-04-25T13:06:14;1.40;;;0.60;;
23658;SDS011;12006;42.666;23.326;2023-04-25T13:08:40;2.57;;;1.00;;
23658;SDS011;12006;42.666;23.326;2023-04-25T13:11:06;2.33;;;0.70;;
23658;SDS011;12006;42.666;23.326;2023-04-25T13:13:31;1.33;;;0.63;;
23658;SDS011;12006;42.666;23.326;2023-04-25T13:15:59;1.13;;;1.10;;
23658;SDS011;12006;42.666;23.326;2023-04-25T13:18:24;0.73;;;0.70;;
23658;SDS011;12006;42.666;23.326;2023-04-25T13:20:54;1.77;;;1.00;;
23658;SDS011;12006;42.666;23.326;2023-04-25T13:23:20;1.33;;;1.07;;
23658;SDS011;12006;42.666;23.326;2023-04-25T13:25:46;1.80;;;1.10;;
23658;SDS011;12006;42.666;23.326;2023-04-25T13:28:12;2.90;;;1.10;;
23658;SDS011;12006;42.666;23.326;2023-04-25T13:30:37;3.53;;;1.10;;
23658;SDS011;12006;42.666;23.326;2023-04-25T13:33:03;0.90;;;0.90;;
23658;SDS011;12006;42.666;23.326;2023-04-25T13:35:29;1.57;;;1.47;;
23658;SDS011;12006;42.666;23.326;2023-04-25T13:37:56;2.57;;;1.67;;
23658;SDS011;12006;42.666;23.326;2023-04-25T13:40:21;3.43;;;2.03;;
23658;SDS011;12006;42.666;23.326;2023-04-25T13:42:47;1.90;;;1.67;;
23658;SDS011;12006;42.666;23.326;2023-04-25T13:45:12;1.70;;;1.57;;
23658;SDS011;12006;42.666;23.326;2023-04-25T13:47:38;1.70;;;1.60;;
23658;SDS011;12006;42.666;23.326;2023-04-25T13:50:04;2.80;;;1.57;;
23658;SDS011;12006;42.666;23.326;2023-04-25T13:52:33;1.60;;;1.50;;
23658;SDS011;12006;42.666;23.326;2023-04-25T13:54:58;1.87;;;1.27;;
23658;SDS011;12006;42.666;23.326;2023-04-25T13:57:24;3.50;;;1.70;;
23658;SDS011;12006;42.666;23.326;2023-04-25T13:59:50;1.80;;;1.30;;
23658;SDS011;12006;42.666;23.326;2023-04-25T14:02:16;1.63;;;1.10;;
23658;SDS011;12006;42.666;23.326;2023-04-25T14:04:42;2.43;;;1.30;;
23658;SDS011;12006;42.666;23.326;2023-04-25T14:07:07;1.30;;;1.20;;
23658;SDS011;12006;42.666;23.326;2023-04-25T14:09:33;1.80;;;1.40;;
23658;SDS011;12006;42.666;23.326;2023-04-25T14:11:59;2.70;;;1.40;;
23658;SDS011;12006;42.666;23.326;2023-04-25T14:14:25;1.07;;;0.93;;
23658;SDS011;12006;42.666;23.326;2023-04-25T14:16:51;1.63;;;1.53;;
23658;SDS011;12006;42.666;23.326;2023-04-25T14:19:18;1.17;;;0.90;;
23658;SDS011;12006;42.666;23.326;2023-04-25T14:21:44;1.10;;;1.00;;
23658;SDS011;12006;42.666;23.326;2023-04-25T14:24:09;1.00;;;0.93;;
23658;SDS011;12006;42.666;23.326;2023-04-25T14:26:38;1.67;;;1.17;;
23658;SDS011;12006;42.666;23.326;2023-04-25T14:29:07;0.80;;;0.80;;
23658;SDS011;12006;42.666;23.326;2023-04-25T14:31:33;1.30;;;0.93;;
23658;SDS011;12006;42.666;23.326;2023-04-25T14:34:00;0.93;;;0.80;;
23658;SDS011;12006;42.666;23.326;2023-04-25T14:36:26;1.07;;;0.80;;
23658;SDS011;12006;42.666;23.326;2023-04-25T14:38:52;2.63;;;0.90;;
23658;SDS011;12006;42.666;23.326;2023-04-25T14:41:18;1.27;;;1.17;;